createdAt,value
2023-02-17T00:01:23.411Z,44.53
2023-02-17T00:03:54.114Z,46.17
2023-02-17T00:06:26.371Z,46.53
2023-02-17T00:09:02.504Z,48.45
2023-02-17T00:11:32.488Z,43.70
2023-02-17T00:14:02.222Z,45.95
2023-02-17T00:16:32.703Z,48.60
2023-02-17T00:19:25.505Z,46.47
2023-02-17T00:21:56.925Z,44.90
2023-02-17T00:24:29.008Z,49.88
2023-02-17T00:27:08.903Z,51.92
2023-02-17T00:29:46.864Z,43.90
2023-02-17T00:32:26.545Z,50.00
2023-02-17T00:34:58.503Z,47.30
2023-02-17T00:37:29.434Z,47.03
2023-02-17T00:39:57.920Z,44.47
2023-02-17T00:42:26.417Z,49.35
2023-02-17T00:44:57.938Z,46.78
2023-02-17T00:47:25.844Z,46.72
2023-02-17T00:49:54.618Z,48.83
2023-02-17T00:52:24.200Z,48.88
2023-02-17T00:54:53.929Z,48.53
2023-02-17T00:57:23.267Z,47.35
2023-02-17T00:59:52.332Z,47.00
2023-02-17T01:02:23.463Z,48.55
2023-02-17T01:04:53.043Z,46.85
2023-02-17T01:07:27.277Z,47.00
2023-02-17T01:09:59.707Z,49.70
2023-02-17T01:12:30.155Z,45.47
2023-02-17T01:15:01.545Z,46.65
2023-02-17T01:17:31.870Z,45.80
2023-02-17T01:20:00.551Z,46.00
2023-02-17T01:22:36.057Z,46.85
2023-02-17T01:27:39.990Z,48.60
2023-02-17T01:30:18.604Z,46.13
2023-02-17T01:32:57.400Z,47.42
2023-02-17T01:35:27.205Z,48.25
2023-02-17T01:37:56.277Z,44.50
2023-02-17T01:40:27.684Z,48.60
2023-02-17T01:42:56.839Z,52.03
2023-02-17T01:45:31.360Z,45.75
2023-02-17T01:48:20.037Z,47.60
2023-02-17T01:51:07.935Z,45.85
2023-02-17T01:53:38.652Z,46.30
2023-02-17T01:56:08.558Z,48.40
2023-02-17T01:58:46.592Z,47.35
2023-02-17T02:01:17.664Z,46.72
2023-02-17T02:03:46.279Z,45.05
2023-02-17T02:06:21.663Z,46.58
2023-02-17T02:09:04.220Z,45.15
2023-02-17T02:11:39.876Z,45.08
2023-02-17T02:14:21.270Z,44.33
2023-02-17T02:17:19.219Z,43.15
2023-02-17T02:20:04.042Z,44.78
2023-02-17T02:22:56.901Z,44.90
2023-02-17T02:25:47.527Z,43.55
2023-02-17T02:28:32.799Z,47.25
2023-02-17T02:31:02.081Z,51.67
2023-02-17T02:33:44.988Z,46.83
2023-02-17T02:36:22.148Z,45.50
2023-02-17T02:39:00.742Z,46.13
2023-02-17T02:41:44.187Z,47.47
2023-02-17T02:44:21.787Z,43.55
2023-02-17T02:47:01.358Z,42.33
2023-02-17T02:49:32.512Z,43.35
2023-02-17T02:52:01.669Z,43.50
2023-02-17T02:54:45.412Z,42.72
2023-02-17T02:57:29.509Z,41.75
2023-02-17T03:00:02.656Z,41.47
2023-02-17T03:03:06.922Z,42.20
2023-02-17T03:05:56.782Z,41.45
2023-02-17T03:08:35.489Z,41.90
2023-02-17T03:11:07.160Z,44.47
2023-02-17T03:13:41.574Z,43.28
2023-02-17T03:16:15.553Z,43.80
2023-02-17T03:18:45.369Z,41.95
2023-02-17T03:21:21.304Z,40.63
2023-02-17T03:23:59.411Z,40.88
2023-02-17T03:26:32.768Z,39.50
2023-02-17T03:29:04.204Z,40.53
2023-02-17T03:31:33.924Z,41.00
2023-02-17T03:34:03.077Z,41.33
2023-02-17T03:39:24.092Z,40.08
2023-02-17T03:41:53.613Z,39.00
2023-02-17T03:44:23.463Z,39.97
2023-02-17T03:46:52.838Z,39.30
2023-02-17T03:49:22.092Z,39.88
2023-02-17T03:51:53.169Z,38.53
2023-02-17T03:54:24.960Z,39.38
2023-02-17T03:56:58.977Z,38.55
2023-02-17T03:59:32.285Z,43.45
2023-02-17T04:02:04.705Z,38.53
2023-02-17T04:04:36.736Z,39.22
2023-02-17T04:07:08.722Z,39.67
2023-02-17T04:09:39.503Z,38.25
2023-02-17T04:12:11.524Z,39.47
2023-02-17T04:14:48.870Z,37.38
2023-02-17T04:17:19.798Z,38.33
2023-02-17T04:19:53.727Z,40.58
2023-02-17T04:22:29.676Z,40.47
2023-02-17T04:28:57.507Z,37.92
2023-02-17T04:31:28.521Z,36.50
2023-02-17T04:33:58.843Z,35.85
2023-02-17T04:36:31.010Z,35.88
2023-02-17T04:39:01.714Z,36.70
2023-02-17T04:41:32.347Z,36.92
2023-02-17T04:44:06.541Z,35.67
2023-02-17T04:46:42.397Z,36.53
2023-02-17T04:49:11.988Z,34.97
2023-02-17T04:51:46.015Z,37.60
2023-02-17T04:54:15.452Z,37.90
2023-02-17T04:56:53.990Z,38.00
2023-02-17T04:59:25.486Z,38.80
2023-02-17T05:01:56.907Z,39.25
2023-02-17T05:04:29.005Z,38.40
2023-02-17T05:07:11.619Z,37.03
2023-02-17T05:09:59.988Z,38.00
2023-02-17T05:12:31.725Z,39.60
2023-02-17T05:15:03.059Z,39.45
2023-02-17T05:17:37.063Z,38.92
2023-02-17T05:20:22.442Z,39.28
2023-02-17T05:23:11.381Z,38.08
2023-02-17T05:25:41.877Z,40.33
2023-02-17T05:28:21.969Z,37.78
2023-02-17T05:30:55.923Z,39.30
2023-02-17T05:33:28.008Z,39.63
2023-02-17T05:36:00.200Z,40.92
2023-02-17T05:38:31.839Z,40.13
2023-02-17T05:41:02.850Z,39.70
2023-02-17T05:43:35.426Z,38.47
2023-02-17T05:46:06.385Z,40.80
2023-02-17T05:51:37.713Z,39.33
2023-02-17T05:54:14.590Z,40.00
2023-02-17T05:56:48.407Z,43.08
2023-02-17T05:59:19.663Z,42.00
2023-02-17T06:02:02.655Z,42.67
2023-02-17T06:04:32.554Z,42.45
2023-02-17T06:07:01.719Z,43.05
2023-02-17T06:09:34.629Z,41.78
2023-02-17T06:12:09.342Z,42.88
2023-02-17T06:14:40.157Z,45.08
2023-02-17T06:17:10.506Z,45.65
2023-02-17T06:20:15.905Z,44.83
2023-02-17T06:22:48.264Z,44.03
2023-02-17T06:25:25.060Z,44.25
2023-02-17T06:28:06.645Z,47.55
2023-02-17T06:30:45.824Z,45.50
2023-02-17T06:33:20.413Z,43.07
2023-02-17T06:35:56.154Z,43.42
2023-02-17T06:38:25.747Z,44.13
2023-02-17T06:51:34.646Z,48.53
2023-02-17T06:54:08.713Z,51.42
2023-02-17T06:56:40.663Z,50.97
2023-02-17T06:59:11.634Z,49.00
2023-02-17T07:01:42.027Z,52.30
2023-02-17T07:20:17.694Z,48.38
2023-02-17T07:22:57.070Z,42.92
2023-02-17T07:25:28.471Z,42.25
2023-02-17T07:28:02.953Z,41.88
2023-02-17T07:33:25.764Z,37.88
2023-02-17T07:35:56.722Z,36.60
2023-02-17T07:38:29.063Z,34.58
2023-02-17T07:40:58.895Z,33.65
2023-02-17T07:43:31.788Z,36.65
2023-02-17T07:46:02.727Z,55.33
2023-02-17T07:48:35.660Z,49.70
2023-02-17T07:51:13.633Z,36.40
2023-02-17T07:53:49.041Z,40.88
2023-02-17T07:56:22.262Z,37.03
2023-02-17T07:58:52.199Z,35.20
2023-02-17T08:01:27.959Z,36.05
2023-02-17T08:04:05.572Z,35.15
2023-02-17T08:06:40.332Z,36.17
2023-02-17T08:09:36.053Z,36.17
2023-02-17T08:12:24.824Z,34.03
2023-02-17T08:14:58.549Z,34.63
2023-02-17T08:17:28.544Z,32.05
2023-02-17T08:20:09.101Z,33.50
2023-02-17T08:22:45.694Z,33.67
2023-02-17T08:25:14.534Z,33.80
2023-02-17T08:27:43.313Z,36.85
2023-02-17T08:30:13.064Z,49.55
2023-02-17T08:32:45.810Z,36.20
2023-02-17T08:35:23.669Z,35.42
2023-02-17T08:37:55.955Z,37.17
2023-02-17T08:43:35.641Z,40.15
2023-02-17T08:46:13.921Z,36.85
2023-02-17T08:48:42.989Z,39.08
2023-02-17T08:51:16.741Z,37.45
2023-02-17T08:53:46.994Z,36.85
2023-02-17T08:56:17.833Z,38.05
2023-02-17T08:58:48.973Z,40.97
2023-02-17T09:01:23.595Z,36.05
2023-02-17T09:07:40.700Z,35.25
2023-02-17T09:10:12.928Z,33.33
2023-02-17T09:13:53.674Z,35.45
2023-02-17T09:16:24.930Z,36.33
2023-02-17T09:18:54.693Z,38.63
2023-02-17T09:21:30.970Z,39.97
2023-02-17T09:24:07.999Z,37.50
2023-02-17T09:26:37.706Z,41.72
2023-02-17T09:29:14.723Z,35.05
2023-02-17T09:31:43.444Z,40.65
2023-02-17T09:34:12.423Z,41.70
2023-02-17T09:36:42.065Z,41.30
2023-02-17T09:39:13.828Z,40.00
2023-02-17T09:42:06.387Z,35.45
2023-02-17T09:44:55.248Z,39.22
2023-02-17T09:47:31.043Z,35.67
2023-02-17T09:50:25.622Z,39.13
2023-02-17T09:53:46.615Z,44.00
2023-02-17T09:56:20.046Z,43.70
2023-02-17T09:58:53.366Z,37.90
2023-02-17T10:01:28.074Z,32.38
2023-02-17T10:04:18.606Z,36.65
2023-02-17T10:07:07.300Z,35.70
2023-02-17T10:09:47.042Z,39.78
2023-02-17T10:12:27.415Z,34.95
2023-02-17T10:15:19.780Z,40.65
2023-02-17T10:18:07.988Z,36.75
2023-02-17T10:20:46.528Z,39.78
2023-02-17T10:23:23.800Z,37.95
2023-02-17T10:26:12.421Z,37.20
2023-02-17T10:28:43.825Z,38.53
2023-02-17T10:31:19.170Z,39.00
2023-02-17T10:34:03.300Z,36.45
2023-02-17T10:36:54.209Z,34.50
2023-02-17T10:39:28.907Z,35.85
2023-02-17T10:52:14.171Z,31.73
2023-02-17T10:54:47.281Z,32.33
2023-02-17T10:57:20.368Z,30.50
2023-02-17T10:59:50.882Z,33.10
2023-02-17T11:02:33.125Z,30.52
2023-02-17T11:05:02.674Z,36.10
2023-02-17T11:07:43.026Z,32.25
2023-02-17T11:10:31.054Z,35.47
2023-02-17T11:13:21.126Z,30.58
2023-02-17T11:15:51.514Z,33.75
2023-02-17T11:18:25.674Z,33.08
2023-02-17T11:21:12.198Z,31.75
2023-02-17T11:23:54.152Z,31.45
2023-02-17T11:26:28.783Z,30.60
2023-02-17T11:29:20.281Z,30.88
2023-02-17T11:32:14.906Z,32.33
2023-02-17T11:34:47.333Z,32.43
2023-02-17T11:37:23.917Z,32.80
2023-02-17T11:40:04.751Z,32.58
2023-02-17T11:46:29.945Z,34.72
2023-02-17T11:49:05.656Z,37.90
2023-02-17T11:52:08.286Z,41.17
2023-02-17T11:54:40.966Z,37.03
2023-02-17T11:57:44.398Z,38.55
2023-02-17T12:00:30.582Z,36.42
2023-02-17T12:03:36.765Z,37.35
2023-02-17T12:06:20.491Z,49.17
2023-02-17T12:09:12.160Z,42.58
2023-02-17T12:12:07.534Z,40.80
2023-02-17T12:15:24.311Z,41.67
2023-02-17T12:18:18.151Z,44.65
2023-02-17T12:21:43.984Z,38.15
2023-02-17T12:24:35.824Z,39.25
2023-02-17T12:27:26.434Z,46.00
2023-02-17T12:30:15.953Z,39.38
2023-02-17T12:33:03.334Z,41.28
2023-02-17T12:36:04.418Z,38.65
2023-02-17T12:38:47.158Z,49.95
2023-02-17T12:41:28.239Z,60.20
2023-02-17T12:44:35.461Z,47.33
2023-02-17T12:47:11.723Z,40.80
2023-02-17T12:50:06.986Z,39.20
2023-02-17T12:52:43.069Z,35.22
2023-02-17T12:55:27.726Z,35.30
2023-02-17T12:58:01.331Z,34.47
2023-02-17T13:00:47.215Z,37.65
2023-02-17T13:03:15.434Z,38.17
2023-02-17T13:05:58.345Z,36.60
2023-02-17T13:08:42.510Z,38.42
2023-02-17T13:11:14.748Z,36.67
2023-02-17T13:13:44.567Z,36.60
2023-02-17T13:16:16.267Z,37.30
2023-02-17T13:18:50.294Z,38.60
2023-02-17T13:21:48.044Z,40.60
2023-02-17T13:25:02.080Z,43.78
2023-02-17T13:28:12.932Z,46.75
2023-02-17T13:30:43.777Z,43.63
2023-02-17T13:36:44.246Z,38.15
2023-02-17T13:39:37.131Z,46.83
2023-02-17T13:42:12.345Z,34.60
2023-02-17T13:46:28.712Z,34.33
2023-02-17T13:52:54.737Z,36.72
2023-02-17T13:56:32.309Z,44.38
2023-02-17T13:59:13.004Z,42.22
2023-02-17T14:01:55.064Z,33.80
2023-02-17T14:04:35.915Z,35.92
2023-02-17T14:07:27.294Z,44.25
2023-02-17T14:12:36.800Z,29.77
2023-02-17T14:15:08.562Z,28.35
2023-02-17T14:17:37.795Z,29.92
2023-02-17T14:20:07.987Z,35.22
2023-02-17T14:22:55.949Z,28.55
2023-02-17T14:25:45.417Z,29.83
2023-02-17T14:28:25.973Z,24.95
2023-02-17T14:30:56.441Z,23.83
2023-02-17T14:33:28.705Z,26.00
2023-02-17T14:36:14.838Z,21.80
2023-02-17T14:38:47.745Z,18.17
2023-02-17T14:41:22.703Z,20.90
2023-02-17T14:43:52.299Z,22.27
2023-02-17T14:46:22.865Z,20.50
2023-02-17T14:49:07.632Z,18.23
2023-02-17T14:52:02.304Z,24.55
2023-02-17T14:57:27.648Z,23.83
2023-02-17T15:03:12.253Z,24.85
2023-02-17T15:05:41.300Z,23.38
2023-02-17T15:08:32.370Z,23.77
2023-02-17T15:11:05.060Z,24.50
2023-02-17T15:13:35.804Z,23.88
2023-02-17T15:16:33.691Z,39.35
2023-02-17T15:19:08.383Z,31.73
2023-02-17T15:21:39.956Z,20.75
2023-02-17T15:24:55.735Z,20.77
2023-02-17T15:27:27.182Z,23.50
2023-02-17T15:30:39.157Z,35.15
2023-02-17T15:33:15.354Z,32.53
2023-02-17T15:35:49.684Z,30.38
2023-02-17T15:41:44.711Z,33.20
2023-02-17T15:44:38.646Z,40.90
2023-02-17T15:50:33.588Z,19.92
2023-02-17T15:53:07.073Z,18.17
2023-02-17T15:55:37.537Z,15.75
2023-02-17T15:58:08.945Z,19.85
2023-02-17T16:00:40.568Z,18.65
2023-02-17T16:03:30.352Z,76.53
2023-02-17T16:06:05.246Z,21.52
2023-02-17T16:08:35.851Z,22.92
2023-02-17T16:11:10.633Z,29.42
2023-02-17T16:13:41.506Z,49.22
2023-02-17T16:16:16.566Z,46.03
2023-02-17T16:18:53.427Z,34.08
2023-02-17T16:21:22.579Z,22.75
2023-02-17T16:23:59.952Z,45.70
2023-02-17T16:26:37.861Z,31.58
2023-02-17T16:29:21.359Z,57.22
2023-02-17T16:31:56.243Z,60.75
2023-02-17T16:34:34.817Z,22.35
2023-02-17T16:37:23.505Z,21.50
2023-02-17T16:40:08.366Z,35.95
2023-02-17T16:43:04.756Z,25.60
2023-02-17T16:45:36.676Z,23.17
2023-02-17T16:48:09.652Z,15.35
2023-02-17T16:50:43.194Z,14.23
2023-02-17T16:56:25.941Z,15.65
2023-02-17T16:58:59.454Z,14.88
2023-02-17T17:02:09.727Z,17.95
2023-02-17T17:04:50.211Z,19.70
2023-02-17T17:07:27.132Z,16.50
2023-02-17T17:12:56.083Z,16.23
2023-02-17T17:15:37.939Z,13.82
2023-02-17T17:23:53.270Z,15.15
2023-02-17T17:26:29.853Z,13.85
2023-02-17T17:29:01.652Z,14.10
2023-02-17T17:31:35.473Z,14.63
2023-02-17T17:34:06.358Z,16.50
2023-02-17T17:37:05.805Z,15.18
2023-02-17T17:39:39.690Z,19.02
2023-02-17T17:42:16.926Z,22.30
2023-02-17T17:45:10.687Z,17.10
2023-02-17T17:47:56.402Z,18.13
2023-02-17T17:50:35.027Z,19.38
2023-02-17T17:53:17.638Z,22.23
2023-02-17T17:55:55.638Z,18.70
2023-02-17T17:58:30.746Z,20.95
2023-02-17T18:03:36.410Z,22.65
2023-02-17T18:06:31.883Z,28.52
2023-02-17T18:12:03.762Z,36.17
2023-02-17T18:14:33.723Z,32.13
2023-02-17T18:17:04.983Z,36.15
2023-02-17T18:19:36.890Z,35.08
2023-02-17T18:22:12.507Z,25.65
2023-02-17T18:24:47.712Z,25.63
2023-02-17T18:27:21.524Z,20.98
2023-02-17T18:33:02.358Z,20.08
2023-02-17T18:38:57.120Z,24.25
2023-02-17T18:41:29.517Z,24.73
2023-02-17T18:44:03.306Z,22.27
2023-02-17T18:46:55.644Z,22.70
2023-02-17T18:49:37.549Z,25.17
2023-02-17T18:54:59.478Z,23.50
2023-02-17T18:58:04.828Z,56.40
2023-02-17T19:01:48.631Z,26.70
2023-02-17T19:04:20.103Z,24.27
2023-02-17T19:06:51.340Z,21.63
2023-02-17T19:09:24.652Z,20.98
2023-02-17T19:11:58.590Z,20.10
2023-02-17T19:14:43.772Z,19.48
2023-02-17T19:17:20.665Z,19.25
2023-02-17T19:23:02.292Z,30.52
2023-02-17T19:25:31.335Z,29.27
2023-02-17T19:28:00.111Z,29.60
2023-02-17T19:30:50.972Z,22.05
2023-02-17T19:33:22.895Z,25.38
2023-02-17T19:36:04.936Z,17.83
2023-02-17T19:38:49.959Z,19.55
2023-02-17T19:41:21.019Z,16.63
2023-02-17T19:43:56.310Z,18.48
2023-02-17T19:46:30.956Z,15.90
2023-02-17T19:49:02.353Z,16.92
2023-02-17T19:57:42.560Z,16.40
2023-02-17T20:03:21.627Z,14.30
2023-02-17T20:05:59.567Z,14.38
2023-02-17T20:08:30.882Z,5.72
2023-02-17T20:11:00.631Z,3.65
2023-02-17T20:13:44.592Z,3.58
2023-02-17T20:16:17.200Z,3.17
2023-02-17T20:21:35.972Z,3.40
2023-02-17T20:24:07.846Z,13.95
2023-02-17T20:27:02.076Z,53.60
2023-02-17T20:33:16.820Z,58.95
2023-02-17T20:35:48.907Z,31.05
2023-02-17T20:38:40.600Z,21.35
2023-02-17T20:41:18.618Z,49.33
2023-02-17T20:44:13.656Z,29.38
2023-02-17T20:46:44.975Z,9.77
2023-02-17T20:49:54.258Z,28.15
2023-02-17T20:52:27.059Z,7.93
2023-02-17T20:54:58.734Z,14.45
2023-02-17T20:57:40.039Z,13.90
2023-02-17T21:00:15.992Z,6.38
2023-02-17T21:02:52.428Z,5.15
2023-02-17T21:05:26.913Z,10.13
2023-02-17T21:08:00.049Z,10.32
2023-02-17T21:10:40.381Z,2.95
2023-02-17T21:13:12.876Z,3.30
2023-02-17T21:15:56.826Z,4.10
2023-02-17T21:21:27.252Z,4.82
2023-02-17T21:24:06.298Z,2.70
2023-02-17T21:26:49.655Z,8.82
2023-02-17T21:29:23.359Z,18.67
2023-02-17T21:32:07.543Z,11.43
2023-02-17T21:35:19.426Z,5.30
2023-02-17T21:38:06.893Z,4.05
2023-02-17T21:40:42.372Z,3.20
2023-02-17T21:43:33.841Z,8.57
2023-02-17T21:46:04.203Z,9.98
2023-02-17T21:49:04.448Z,7.15
2023-02-17T21:51:43.961Z,11.98
2023-02-17T21:54:15.143Z,8.43
2023-02-17T21:56:45.431Z,8.85
2023-02-17T21:59:19.635Z,5.60
2023-02-17T22:01:57.130Z,10.95
2023-02-17T22:04:32.447Z,4.45
2023-02-17T22:07:03.290Z,8.30
2023-02-17T22:09:35.751Z,2.33
2023-02-17T22:12:04.169Z,5.28
2023-02-17T22:14:34.494Z,3.58
2023-02-17T22:17:13.802Z,3.70
2023-02-17T22:19:52.662Z,2.28
2023-02-17T22:28:58.951Z,3.03
2023-02-17T22:31:31.982Z,5.32
2023-02-17T22:37:00.540Z,2.72
2023-02-17T22:39:35.129Z,2.00
2023-02-17T22:42:04.606Z,2.75
2023-02-17T22:44:38.047Z,2.63
2023-02-17T22:47:08.452Z,2.92
2023-02-17T22:49:39.740Z,2.70
2023-02-17T22:52:11.620Z,4.05
2023-02-17T22:54:41.110Z,3.08
2023-02-17T22:57:14.460Z,2.60
2023-02-17T22:59:54.033Z,3.00
2023-02-17T23:13:00.414Z,2.53
2023-02-17T23:15:45.937Z,2.55
2023-02-17T23:18:24.735Z,2.35
2023-02-17T23:21:07.387Z,2.77
2023-02-17T23:28:28.426Z,2.63
2023-02-17T23:34:09.532Z,2.30
2023-02-17T23:36:48.393Z,2.55
2023-02-17T23:39:18.986Z,2.40
2023-02-17T23:41:52.739Z,3.30
2023-02-17T23:44:47.662Z,2.75
2023-02-17T23:47:26.313Z,2.38
2023-02-17T23:50:01.195Z,3.75
2023-02-17T23:52:47.599Z,2.65
2023-02-17T23:55:16.773Z,2.95
2023-02-17T23:57:46.575Z,3.22
